Time;durP1;ratioP1;P1;durP2;ratioP2;P2;SDS_P1;SDS_P2;PMS_P1;PMS_P2;Temp;Humidity;BMP_temperature;BMP_pressure;BME280_temperature;BME280_humidity;BME280_pressure;Samples;Min_cycle;Max_cycle;Signal;HPM_P1;HPM_P2
2024/01/17 00:00:35;;;;;;;11.82;5.55;;;1.40;63.30;;;;;;2214115;55;21099;-65
2024/01/17 00:03:02;;;;;;;8.82;4.65;;;1.40;63.30;;;;;;2231086;56;20979;-66
2024/01/17 00:05:28;;;;;;;11.20;4.87;;;1.40;63.30;;;;;;2231626;55;21499;-65
2024/01/17 00:07:56;;;;;;;10.73;5.12;;;1.50;63.40;;;;;;2230834;55;20986;-65
2024/01/17 00:10:24;;;;;;;12.23;5.82;;;1.50;63.30;;;;;;2232173;55;21023;-65
2024/01/17 00:12:50;;;;;;;11.95;5.93;;;1.50;63.30;;;;;;2237254;55;20967;-66
2024/01/17 00:15:18;;;;;;;14.05;6.57;;;1.60;63.40;;;;;;2251752;54;20982;-65
2024/01/17 00:17:48;;;;;;;13.40;5.87;;;1.60;63.40;;;;;;2225927;55;20987;-65
2024/01/17 00:20:15;;;;;;;12.10;5.90;;;1.60;63.40;;;;;;2457678;55;20967;-65
2024/01/17 00:22:41;;;;;;;11.52;5.62;;;1.70;63.50;;;;;;2234374;56;21061;-65
2024/01/17 00:25:10;;;;;;;13.05;6.60;;;1.70;63.50;;;;;;2234929;56;20967;-65
2024/01/17 00:27:36;;;;;;;15.05;7.05;;;1.70;63.50;;;;;;2465833;55;21067;-66
2024/01/17 00:30:03;;;;;;;15.75;7.05;;;1.80;63.50;;;;;;2235381;55;20967;-66
2024/01/17 00:32:33;;;;;;;13.88;6.80;;;1.80;63.50;;;;;;2457943;55;21007;-66
2024/01/17 00:34:59;;;;;;;12.27;5.72;;;1.80;63.50;;;;;;2234767;56;21410;-66
2024/01/17 00:37:28;;;;;;;12.70;5.68;;;1.90;63.70;;;;;;2458124;55;21008;-66
2024/01/17 00:39:54;;;;;;;11.60;5.57;;;1.90;63.70;;;;;;2234547;55;20975;-66
2024/01/17 00:42:21;;;;;;;12.20;5.87;;;2.00;63.70;;;;;;2234637;56;20991;-66
2024/01/17 00:44:47;;;;;;;13.95;5.65;;;2.00;63.70;;;;;;2243662;55;20947;-66
2024/01/17 00:47:13;;;;;;;17.77;7.35;;;2.00;63.60;;;;;;2236583;55;21003;-66
2024/01/17 00:49:40;;;;;;;14.02;6.68;;;2.10;63.70;;;;;;2245679;55;21091;-66
2024/01/17 00:52:08;;;;;;;13.77;6.97;;;2.10;63.70;;;;;;2235328;55;21023;-65
2024/01/17 00:54:34;;;;;;;17.48;8.38;;;2.10;63.70;;;;;;2286319;54;20944;-65
2024/01/17 00:57:00;;;;;;;16.23;7.62;;;2.20;63.70;;;;;;2503418;55;20951;-66
2024/01/17 00:59:27;;;;;;;15.75;7.70;;;2.20;63.70;;;;;;2262228;54;21026;-66
2024/01/17 01:01:53;;;;;;;15.02;6.78;;;2.20;63.60;;;;;;2440726;55;20958;-65
2024/01/17 01:04:19;;;;;;;14.38;7.85;;;2.20;63.60;;;;;;2247809;56;21441;-66
2024/01/17 01:06:46;;;;;;;16.37;7.75;;;2.30;63.70;;;;;;2247567;57;21048;-66
2024/01/17 01:09:12;;;;;;;14.05;6.50;;;2.30;63.80;;;;;;2247874;56;21275;-66
2024/01/17 01:11:42;;;;;;;13.27;6.57;;;2.30;63.80;;;;;;2251239;56;20983;-65
2024/01/17 01:14:08;;;;;;;12.37;5.43;;;2.30;63.90;;;;;;2469552;56;21782;-66
2024/01/17 01:16:38;;;;;;;7.85;4.15;;;2.40;64.00;;;;;;2246193;56;21003;-65
2024/01/17 01:19:04;;;;;;;9.52;3.80;;;2.40;64.00;;;;;;2248947;56;21937;-65
2024/01/17 01:21:32;;;;;;;8.88;4.10;;;2.50;64.10;;;;;;2242583;55;20939;-65
2024/01/17 01:23:59;;;;;;;7.78;3.50;;;2.50;64.10;;;;;;2244641;56;20975;-66
2024/01/17 01:26:25;;;;;;;6.93;3.33;;;2.50;64.10;;;;;;2255644;56;21095;-65
2024/01/17 01:28:52;;;;;;;7.68;3.33;;;2.60;64.30;;;;;;2482694;55;21316;-66
2024/01/17 01:31:18;;;;;;;7.97;3.85;;;2.60;64.30;;;;;;2483749;55;21795;-67
2024/01/17 01:33:46;;;;;;;8.27;3.58;;;2.60;64.30;;;;;;2482973;54;21452;-65
2024/01/17 01:36:12;;;;;;;7.82;3.70;;;2.70;64.40;;;;;;2257623;55;21001;-65
2024/01/17 01:38:40;;;;;;;5.80;3.08;;;2.70;64.50;;;;;;2484004;55;21485;-66
2024/01/17 01:41:06;;;;;;;7.57;3.62;;;2.70;64.50;;;;;;2260437;56;21010;-66
2024/01/17 01:43:32;;;;;;;9.90;3.87;;;2.80;64.50;;;;;;2483940;55;20967;-65
2024/01/17 01:47:21;;;;;;;7.45;3.50;;;2.80;64.50;;;;;;2255925;55;21102;-65
2024/01/17 01:49:48;;;;;;;6.15;3.25;;;2.90;64.20;;;;;;2255869;55;21818;-66
2024/01/17 01:52:14;;;;;;;7.15;3.35;;;2.90;64.60;;;;;;2264173;56;21832;-66
2024/01/17 01:54:41;;;;;;;6.05;3.03;;;2.90;64.60;;;;;;2263092;54;21042;-66
2024/01/17 01:57:08;;;;;;;7.45;3.20;;;3.00;64.70;;;;;;2256270;54;21326;-66
2024/01/17 01:59:35;;;;;;;6.15;3.28;;;3.00;64.70;;;;;;2256000;55;21060;-66
2024/01/17 02:02:04;;;;;;;7.10;3.37;;;3.00;64.70;;;;;;2260811;56;20962;-65
2024/01/17 02:04:37;;;;;;;6.60;3.12;;;3.10;64.70;;;;;;2260124;56;21005;-66
2024/01/17 02:07:05;;;;;;;9.35;4.28;;;3.10;64.70;;;;;;2483384;54;20961;-66
2024/01/17 02:09:32;;;;;;;9.82;5.12;;;3.20;64.90;;;;;;2255893;56;20988;-66
2024/01/17 02:11:58;;;;;;;10.73;5.05;;;3.20;64.90;;;;;;2482892;55;21084;-67
2024/01/17 02:14:25;;;;;;;11.82;5.78;;;3.20;64.90;;;;;;2484116;55;20960;-65
2024/01/17 02:16:53;;;;;;;11.00;5.62;;;3.20;64.80;;;;;;2257167;56;21410;-65
2024/01/17 02:19:19;;;;;;;9.85;4.75;;;3.30;64.90;;;;;;2482621;55;20968;-67
2024/01/17 02:21:45;;;;;;;8.98;4.80;;;3.30;64.80;;;;;;2256174;56;21255;-66
2024/01/17 02:24:18;;;;;;;7.43;3.97;;;3.30;64.80;;;;;;2255867;55;20993;-66
2024/01/17 02:26:47;;;;;;;8.70;4.40;;;3.40;64.70;;;;;;2245196;54;20974;-66
2024/01/17 02:29:14;;;;;;;8.60;4.70;;;3.40;64.70;;;;;;2253813;56;20960;-66
2024/01/17 02:31:40;;;;;;;7.62;4.18;;;3.40;64.70;;;;;;2255592;56;20925;-66
2024/01/17 02:34:10;;;;;;;8.77;4.20;;;3.40;64.80;;;;;;2257544;55;22017;-66
2024/01/17 02:36:36;;;;;;;7.78;4.28;;;3.40;64.80;;;;;;2260126;54;20974;-66
2024/01/17 02:39:03;;;;;;;9.70;4.90;;;3.50;64.90;;;;;;2259795;55;21607;-66
2024/01/17 02:41:29;;;;;;;10.38;5.50;;;3.50;64.90;;;;;;2254264;56;21298;-66
2024/01/17 02:43:55;;;;;;;9.23;4.57;;;3.50;64.90;;;;;;2261901;55;20996;-67
2024/01/17 02:46:23;;;;;;;10.57;5.10;;;3.50;64.90;;;;;;2500780;54;20948;-66
2024/01/17 02:48:52;;;;;;;9.13;4.60;;;3.60;65.00;;;;;;2268041;54;20988;-66
2024/01/17 02:51:18;;;;;;;11.77;4.80;;;3.60;65.00;;;;;;2484993;54;20994;-66
2024/01/17 02:53:44;;;;;;;8.88;4.55;;;3.60;64.90;;;;;;2482385;55;20997;-67
2024/01/17 02:56:11;;;;;;;10.63;4.70;;;3.60;64.80;;;;;;2483029;55;21429;-66
2024/01/17 02:58:40;;;;;;;8.05;4.32;;;3.60;64.80;;;;;;2260191;54;20983;-66
2024/01/17 03:01:06;;;;;;;8.13;4.35;;;3.60;64.70;;;;;;2496887;54;20964;-66
2024/01/17 03:03:33;;;;;;;9.35;4.40;;;3.60;64.70;;;;;;2256536;56;20975;-66
2024/01/17 03:06:00;;;;;;;9.27;4.53;;;3.60;64.80;;;;;;2270795;54;21773;-66
2024/01/17 03:08:26;;;;;;;8.45;4.03;;;3.70;65.00;;;;;;2265306;55;21071;-66
2024/01/17 03:10:53;;;;;;;9.15;4.10;;;3.70;65.10;;;;;;2479138;55;21430;-66
2024/01/17 03:13:19;;;;;;;7.47;4.60;;;3.70;65.00;;;;;;2260587;55;21020;-66
2024/01/17 03:15:47;;;;;;;8.68;4.40;;;3.70;65.00;;;;;;2265917;55;21067;-67
2024/01/17 03:18:13;;;;;;;9.48;5.37;;;3.70;65.00;;;;;;2465340;54;20992;-66
2024/01/17 03:20:40;;;;;;;9.07;4.55;;;3.70;65.00;;;;;;2514216;54;20972;-66
2024/01/17 03:23:06;;;;;;;6.70;3.65;;;3.80;65.20;;;;;;2284828;55;21006;-66
2024/01/17 03:25:33;;;;;;;6.47;3.67;;;3.80;65.10;;;;;;2282995;55;21039;-66
2024/01/17 03:27:59;;;;;;;7.78;4.30;;;3.80;65.20;;;;;;2281081;56;20968;-66
2024/01/17 03:30:25;;;;;;;8.30;3.97;;;3.80;65.20;;;;;;2286920;55;21017;-66
2024/01/17 03:32:52;;;;;;;7.32;3.70;;;3.80;65.20;;;;;;2282494;54;20979;-66
2024/01/17 03:35:18;;;;;;;8.18;3.67;;;3.90;65.40;;;;;;2515635;54;21488;-66
2024/01/17 03:37:45;;;;;;;6.80;3.20;;;3.90;65.40;;;;;;2282907;54;21036;-66
2024/01/17 03:40:15;;;;;;;7.55;3.92;;;3.90;65.40;;;;;;2515199;54;20968;-66
2024/01/17 03:42:42;;;;;;;10.90;5.57;;;3.90;65.40;;;;;;2283486;54;21035;-66
2024/01/17 03:45:09;;;;;;;9.23;4.57;;;4.00;65.40;;;;;;2512807;54;21881;-66
2024/01/17 03:47:36;;;;;;;9.50;4.65;;;4.00;65.50;;;;;;2281130;56;21868;-66
2024/01/17 03:50:02;;;;;;;7.00;3.85;;;4.00;65.50;;;;;;2280711;54;21484;-65
2024/01/17 03:52:28;;;;;;;7.65;4.30;;;4.00;65.50;;;;;;2281252;55;21011;-66
2024/01/17 03:54:55;;;;;;;7.35;4.28;;;4.00;65.50;;;;;;2281096;56;21007;-65
2024/01/17 03:57:21;;;;;;;10.82;4.50;;;4.10;65.60;;;;;;2281321;56;20928;-67
2024/01/17 03:59:51;;;;;;;8.55;3.87;;;4.10;66.30;;;;;;2281072;56;20957;-66
2024/01/17 04:02:17;;;;;;;8.68;4.05;;;4.10;66.30;;;;;;2281377;56;21047;-66
2024/01/17 04:04:45;;;;;;;6.45;3.78;;;4.20;65.60;;;;;;2281351;56;21465;-66
2024/01/17 04:07:12;;;;;;;6.72;3.83;;;4.20;65.60;;;;;;2282393;54;20976;-66
2024/01/17 04:09:38;;;;;;;9.38;4.32;;;4.20;65.60;;;;;;2281260;55;21759;-66
2024/01/17 04:12:05;;;;;;;7.20;3.70;;;4.20;65.70;;;;;;2280792;54;20976;-66
2024/01/17 04:14:32;;;;;;;7.57;3.72;;;4.20;65.70;;;;;;2284833;55;20982;-66
2024/01/17 04:16:58;;;;;;;5.72;3.67;;;4.20;65.70;;;;;;2516017;53;20944;-66
2024/01/17 04:19:25;;;;;;;6.65;3.65;;;4.30;65.70;;;;;;2281321;54;20972;-66
2024/01/17 04:21:57;;;;;;;6.25;3.40;;;4.30;65.70;;;;;;2281512;56;21872;-66
2024/01/17 04:24:24;;;;;;;6.37;3.50;;;4.30;65.70;;;;;;2282484;55;21229;-66
2024/01/17 04:26:52;;;;;;;7.95;4.22;;;4.30;65.60;;;;;;2513376;54;21048;-66
2024/01/17 04:29:19;;;;;;;7.45;4.32;;;4.30;65.70;;;;;;2512348;54;21955;-66
2024/01/17 04:31:45;;;;;;;7.28;3.92;;;4.30;65.60;;;;;;2279483;55;21007;-67
2024/01/17 04:34:12;;;;;;;8.30;4.37;;;4.40;65.80;;;;;;2281145;54;20967;-66
2024/01/17 04:36:38;;;;;;;9.93;5.20;;;4.40;65.80;;;;;;2281485;56;20956;-66
2024/01/17 04:39:05;;;;;;;8.57;4.90;;;4.40;65.80;;;;;;2279893;55;20984;-67
2024/01/17 04:41:31;;;;;;;8.00;4.28;;;4.40;65.80;;;;;;2513903;54;21028;-66
2024/01/17 04:43:57;;;;;;;7.95;4.68;;;4.40;65.80;;;;;;2514234;54;20992;-66
2024/01/17 04:46:28;;;;;;;8.93;4.78;;;4.50;66.00;;;;;;2514388;54;21217;-66
2024/01/17 04:48:58;;;;;;;8.48;4.82;;;4.50;66.00;;;;;;2513922;54;20956;-66
2024/01/17 04:51:25;;;;;;;9.45;5.05;;;4.50;66.00;;;;;;2281555;54;20960;-65
2024/01/17 04:53:52;;;;;;;12.55;5.75;;;4.50;66.00;;;;;;2281547;54;21032;-67
2024/01/17 04:56:18;;;;;;;9.95;5.53;;;4.50;65.90;;;;;;2288829;54;21589;-66
2024/01/17 04:58:45;;;;;;;8.25;4.40;;;4.50;65.80;;;;;;2514380;54;20992;-67
2024/01/17 05:01:11;;;;;;;7.60;4.35;;;4.50;65.80;;;;;;2280553;54;21720;-66
2024/01/17 05:03:40;;;;;;;10.82;5.40;;;4.60;65.90;;;;;;2280205;56;20940;-66
2024/01/17 05:06:08;;;;;;;9.77;5.62;;;4.60;65.90;;;;;;2518150;54;21006;-67
2024/01/17 05:08:35;;;;;;;8.95;5.50;;;4.60;65.90;;;;;;2514119;54;21466;-66
2024/01/17 05:11:05;;;;;;;10.07;5.78;;;4.60;65.90;;;;;;2281596;54;21008;-66
2024/01/17 05:13:32;;;;;;;9.02;5.75;;;4.60;65.90;;;;;;2281360;56;20956;-67
2024/01/17 05:15:59;;;;;;;10.95;6.55;;;4.60;65.90;;;;;;2280804;56;20931;-66
2024/01/17 05:18:25;;;;;;;13.40;7.07;;;4.60;65.90;;;;;;2280688;54;21267;-65
2024/01/17 05:20:52;;;;;;;12.60;6.12;;;4.60;65.80;;;;;;2281159;55;20971;-66
2024/01/17 05:23:18;;;;;;;9.23;5.55;;;4.70;66.00;;;;;;2513110;54;20996;-66
2024/01/17 05:25:45;;;;;;;9.93;5.55;;;4.70;66.00;;;;;;2514242;54;21549;-65
2024/01/17 05:28:12;;;;;;;9.70;6.50;;;4.70;66.00;;;;;;2513546;54;20944;-66
2024/01/17 05:30:39;;;;;;;10.10;6.18;;;4.70;65.90;;;;;;2280970;56;20949;-66
2024/01/17 05:33:05;;;;;;;14.63;8.50;;;4.70;65.90;;;;;;2281007;54;21888;-66
2024/01/17 05:35:32;;;;;;;12.55;6.95;;;4.70;65.90;;;;;;2280949;55;21044;-66
2024/01/17 05:38:01;;;;;;;12.25;6.72;;;4.70;65.90;;;;;;2514693;54;21327;-65
2024/01/17 05:40:28;;;;;;;12.20;6.50;;;4.80;66.00;;;;;;2513070;54;21397;-66
2024/01/17 05:42:55;;;;;;;9.00;5.32;;;4.70;65.90;;;;;;2281015;54;21426;-66
2024/01/17 05:45:22;;;;;;;8.40;5.00;;;4.70;65.90;;;;;;2516667;54;20966;-66
2024/01/17 05:47:48;;;;;;;8.32;4.97;;;4.70;65.80;;;;;;2280572;54;20944;-66
2024/01/17 05:50:17;;;;;;;8.77;5.18;;;4.70;65.80;;;;;;2280888;56;21000;-66
2024/01/17 05:52:45;;;;;;;10.05;5.45;;;4.70;65.80;;;;;;2514676;54;20935;-66
2024/01/17 05:55:12;;;;;;;12.55;5.80;;;4.70;66.60;;;;;;2514430;54;21454;-66
2024/01/17 05:57:38;;;;;;;9.20;5.47;;;4.70;65.90;;;;;;2517610;54;21017;-66
2024/01/17 06:00:09;;;;;;;10.30;5.65;;;4.70;65.90;;;;;;2513868;54;21094;-67
2024/01/17 06:02:37;;;;;;;10.50;5.25;;;4.80;66.00;;;;;;2281318;55;21033;-67
2024/01/17 06:05:04;;;;;;;8.50;4.85;;;4.80;66.00;;;;;;2281240;56;20979;-66
2024/01/17 06:07:31;;;;;;;8.95;4.82;;;4.80;66.00;;;;;;2280300;56;21016;-67
2024/01/17 06:09:57;;;;;;;10.85;6.22;;;4.80;66.00;;;;;;2281154;56;20948;-66
2024/01/17 06:12:28;;;;;;;8.13;4.43;;;4.80;66.00;;;;;;2279858;54;20988;-65
2024/01/17 06:14:56;;;;;;;10.32;5.68;;;4.80;66.00;;;;;;2285572;55;21037;-67
2024/01/17 06:17:22;;;;;;;8.40;5.15;;;4.60;65.80;;;;;;2281224;54;21079;-66
2024/01/17 06:19:51;;;;;;;9.10;5.25;;;4.80;66.10;;;;;;2279999;54;21030;-65
2024/01/17 06:22:18;;;;;;;9.95;5.15;;;4.80;66.00;;;;;;2280591;56;21521;-66
2024/01/17 06:24:46;;;;;;;7.75;4.80;;;4.80;66.10;;;;;;2281242;56;21012;-66
2024/01/17 06:27:14;;;;;;;8.23;4.75;;;4.80;66.00;;;;;;2513967;54;20960;-66
2024/01/17 06:29:41;;;;;;;7.68;4.30;;;4.90;66.20;;;;;;2280972;56;20971;-65
2024/01/17 06:32:07;;;;;;;9.02;5.25;;;4.80;66.10;;;;;;2268063;56;20936;-66
2024/01/17 06:34:34;;;;;;;8.80;4.70;;;4.80;66.10;;;;;;2281066;54;20944;-65
2024/01/17 06:37:03;;;;;;;10.48;5.43;;;4.90;66.20;;;;;;2281288;54;21023;-66
2024/01/17 06:39:32;;;;;;;10.27;5.25;;;4.90;66.20;;;;;;2280715;54;21016;-65
2024/01/17 06:41:59;;;;;;;9.85;5.22;;;4.90;66.20;;;;;;2514270;54;20964;-66
2024/01/17 06:44:31;;;;;;;9.25;5.40;;;4.90;66.20;;;;;;2281240;56;20944;-66
2024/01/17 06:46:57;;;;;;;10.40;6.00;;;4.90;66.20;;;;;;2281345;56;20933;-66
2024/01/17 06:49:24;;;;;;;8.30;4.90;;;4.90;66.20;;;;;;2279916;54;21024;-66
2024/01/17 06:51:51;;;;;;;10.57;5.68;;;4.90;66.30;;;;;;2280817;56;20975;-65
2024/01/17 06:54:19;;;;;;;8.40;5.07;;;4.90;66.30;;;;;;2510027;54;21052;-66
2024/01/17 06:56:45;;;;;;;8.13;5.25;;;4.90;66.30;;;;;;2509808;54;21757;-67
2024/01/17 06:59:11;;;;;;;10.45;5.60;;;4.90;66.30;;;;;;2511758;54;21988;-66
2024/01/17 07:01:38;;;;;;;7.78;5.25;;;4.90;66.30;;;;;;2282059;54;21044;-66
2024/01/17 07:04:04;;;;;;;11.65;6.53;;;5.00;66.40;;;;;;2279661;55;21645;-67
2024/01/17 07:06:34;;;;;;;12.35;7.25;;;5.00;66.40;;;;;;2278012;54;20988;-65
2024/01/17 07:09:01;;;;;;;12.32;7.20;;;5.10;66.50;;;;;;2511669;54;21064;-65
2024/01/17 07:11:27;;;;;;;13.18;8.00;;;5.00;66.40;;;;;;2511117;54;21475;-65
2024/01/17 07:13:53;;;;;;;15.02;8.80;;;5.00;66.40;;;;;;2511966;54;20964;-66
2024/01/17 07:16:21;;;;;;;13.35;8.48;;;5.00;66.40;;;;;;2278787;56;21465;-66
2024/01/17 07:18:48;;;;;;;14.20;9.00;;;5.00;66.30;;;;;;2278435;55;20944;-65
2024/01/17 07:21:18;;;;;;;16.33;8.98;;;5.00;66.30;;;;;;2510906;54;21248;-65
2024/01/17 07:23:45;;;;;;;14.55;8.45;;;5.10;66.40;;;;;;2280211;56;20940;-66
2024/01/17 07:26:14;;;;;;;14.05;8.65;;;5.00;66.30;;;;;;2510272;54;20931;-66
2024/01/17 07:28:41;;;;;;;14.65;8.48;;;5.00;66.40;;;;;;2286171;54;21004;-66
2024/01/17 07:31:09;;;;;;;15.18;8.70;;;5.00;66.40;;;;;;2279030;55;20964;-65
2024/01/17 07:33:36;;;;;;;11.85;7.20;;;5.10;66.60;;;;;;2277352;54;21425;-66
2024/01/17 07:36:04;;;;;;;12.98;7.32;;;5.10;66.60;;;;;;2278258;55;20972;-66
2024/01/17 07:38:31;;;;;;;10.55;6.47;;;5.10;66.60;;;;;;2278252;55;20944;-66
2024/01/17 07:40:58;;;;;;;11.95;6.53;;;5.10;66.60;;;;;;2511359;54;20948;-66
2024/01/17 07:43:24;;;;;;;10.43;6.40;;;5.10;66.60;;;;;;2295068;54;20973;-67
2024/01/17 07:45:51;;;;;;;10.82;7.00;;;5.10;67.30;;;;;;2285655;55;21011;-66
2024/01/17 07:48:17;;;;;;;12.18;7.00;;;5.20;66.70;;;;;;2278370;54;20992;-67
2024/01/17 07:50:45;;;;;;;12.63;7.47;;;5.10;66.50;;;;;;2279459;54;21007;-66
2024/01/17 07:53:13;;;;;;;13.57;8.30;;;5.10;66.50;;;;;;2279038;56;21079;-66
2024/01/17 07:55:39;;;;;;;12.95;8.15;;;5.30;66.60;;;;;;2511673;54;21876;-66
2024/01/17 07:58:06;;;;;;;11.82;7.30;;;5.10;66.40;;;;;;2278634;56;21976;-67
2024/01/17 08:00:33;;;;;;;13.05;7.20;;;5.10;66.40;;;;;;2511579;54;20999;-67
2024/01/17 08:02:59;;;;;;;14.35;8.05;;;5.20;66.50;;;;;;2278791;54;20975;-66
2024/01/17 08:05:26;;;;;;;12.13;7.60;;;5.20;66.50;;;;;;2278355;54;21043;-66
2024/01/17 08:07:52;;;;;;;13.62;7.68;;;5.10;66.40;;;;;;2280131;56;21091;-67
2024/01/17 08:10:19;;;;;;;11.18;7.30;;;5.10;67.10;;;;;;2278605;54;21015;-65
2024/01/17 08:12:46;;;;;;;14.38;7.47;;;5.20;66.60;;;;;;2511778;54;20964;-67
2024/01/17 08:15:13;;;;;;;10.95;6.93;;;5.20;67.30;;;;;;2512010;54;21008;-66
2024/01/17 08:17:40;;;;;;;13.07;8.05;;;5.20;66.70;;;;;;2278768;54;20944;-66
2024/01/17 08:20:07;;;;;;;14.18;8.73;;;5.20;66.70;;;;;;2514963;53;21062;-67
2024/01/17 08:22:34;;;;;;;17.92;9.50;;;5.20;66.80;;;;;;2278445;56;20987;-66
2024/01/17 08:25:01;;;;;;;15.75;9.80;;;5.20;66.70;;;;;;2511740;54;20968;-66
2024/01/17 08:27:27;;;;;;;16.50;9.70;;;5.20;66.80;;;;;;2277537;56;20951;-66
2024/01/17 08:29:54;;;;;;;15.75;10.07;;;5.20;66.90;;;;;;2278964;55;21339;-66
2024/01/17 08:32:22;;;;;;;19.08;11.90;;;5.20;67.00;;;;;;2511545;54;21004;-65
2024/01/17 08:34:49;;;;;;;17.67;10.95;;;5.20;67.00;;;;;;2279214;55;21072;-66
2024/01/17 08:37:15;;;;;;;16.45;10.80;;;5.20;67.00;;;;;;2279047;56;21363;-66
2024/01/17 08:39:43;;;;;;;20.45;10.55;;;5.20;67.10;;;;;;2510249;54;21410;-66
2024/01/17 08:42:11;;;;;;;19.70;12.02;;;5.30;67.20;;;;;;2279297;54;21630;-67
2024/01/17 08:44:40;;;;;;;17.08;10.05;;;5.30;67.10;;;;;;2281989;55;20960;-65
2024/01/17 08:47:07;;;;;;;19.65;10.85;;;5.30;67.00;;;;;;2278979;56;21008;-66
2024/01/17 08:49:37;;;;;;;16.87;10.10;;;5.30;67.10;;;;;;2511065;54;21381;-66
2024/01/17 08:52:04;;;;;;;13.57;9.20;;;5.30;67.10;;;;;;2279188;56;20976;-66
2024/01/17 08:54:30;;;;;;;18.65;11.32;;;5.30;67.20;;;;;;2511067;54;20912;-66
2024/01/17 08:56:57;;;;;;;16.40;9.70;;;5.30;67.30;;;;;;2279091;54;20924;-66
2024/01/17 08:59:23;;;;;;;17.83;11.38;;;5.30;67.30;;;;;;2278706;54;20969;-67
2024/01/17 09:01:52;;;;;;;19.62;11.00;;;5.30;67.30;;;;;;2278993;55;20952;-66
2024/01/17 09:04:19;;;;;;;20.83;11.90;;;5.30;67.40;;;;;;2279159;55;20951;-67
2024/01/17 09:06:45;;;;;;;23.48;14.15;;;5.40;67.60;;;;;;2511231;54;21051;-66
2024/01/17 09:09:12;;;;;;;18.05;10.38;;;5.40;67.60;;;;;;2279082;56;21789;-66
2024/01/17 09:11:39;;;;;;;17.20;10.75;;;5.40;67.60;;;;;;2511142;54;20976;-65
2024/01/17 09:14:06;;;;;;;15.25;9.43;;;5.40;67.70;;;;;;2511817;54;21008;-66
2024/01/17 09:16:33;;;;;;;17.70;10.15;;;5.40;67.70;;;;;;2277770;55;20956;-66
2024/01/17 09:19:02;;;;;;;16.92;10.50;;;5.40;67.70;;;;;;2511240;54;21032;-66
2024/01/17 09:21:31;;;;;;;16.35;9.00;;;5.50;67.80;;;;;;2510925;54;21071;-66
2024/01/17 09:23:57;;;;;;;20.95;10.70;;;5.50;67.80;;;;;;2278775;56;21020;-66
2024/01/17 09:26:27;;;;;;;17.12;9.65;;;5.50;67.80;;;;;;2278537;56;21023;-66
2024/01/17 09:28:53;;;;;;;23.10;12.52;;;5.50;67.80;;;;;;2279105;54;21000;-66
2024/01/17 09:31:19;;;;;;;22.62;11.45;;;5.50;67.80;;;;;;2279524;56;20964;-65
2024/01/17 09:33:47;;;;;;;18.00;10.70;;;5.50;67.80;;;;;;2511376;54;21092;-66
2024/01/17 09:36:16;;;;;;;17.15;10.05;;;5.50;67.70;;;;;;2279282;55;20960;-67
2024/01/17 09:38:43;;;;;;;20.67;11.48;;;5.50;67.70;;;;;;2511838;54;21311;-66
2024/01/17 09:41:09;;;;;;;22.33;12.15;;;5.50;67.70;;;;;;2279319;54;20984;-67
2024/01/17 09:43:36;;;;;;;19.98;11.23;;;5.50;67.70;;;;;;2278237;54;21076;-67
2024/01/17 09:46:04;;;;;;;20.20;10.88;;;5.50;67.70;;;;;;2511546;54;21022;-66
2024/01/17 09:48:30;;;;;;;17.80;10.27;;;5.60;67.80;;;;;;2508529;54;21028;-66
2024/01/17 09:50:57;;;;;;;18.40;10.85;;;5.60;67.80;;;;;;2279048;55;21041;-67
2024/01/17 09:53:32;;;;;;;18.02;10.77;;;5.60;67.80;;;;;;2278976;54;21053;-66
2024/01/17 09:56:01;;;;;;;16.00;9.27;;;5.60;67.80;;;;;;2278994;54;21006;-66
2024/01/17 09:58:31;;;;;;;17.08;9.85;;;5.60;68.00;;;;;;2279250;56;21000;-67
2024/01/17 10:01:00;;;;;;;21.83;11.00;;;5.60;68.00;;;;;;2279176;54;21746;-66
2024/01/17 10:03:26;;;;;;;29.55;13.95;;;5.60;68.00;;;;;;2513690;54;20980;-67
2024/01/17 10:05:56;;;;;;;26.00;13.23;;;5.60;68.00;;;;;;2281022;54;21228;-66
2024/01/17 10:08:23;;;;;;;21.02;12.02;;;5.60;67.90;;;;;;2280788;56;20952;-67
2024/01/17 10:10:50;;;;;;;20.58;11.45;;;5.60;67.90;;;;;;2280412;56;20996;-68
2024/01/17 10:13:20;;;;;;;22.15;11.75;;;5.60;67.90;;;;;;2280663;54;21043;-66
2024/01/17 10:15:46;;;;;;;19.17;11.15;;;5.60;67.90;;;;;;2510859;54;21658;-66
2024/01/17 10:18:12;;;;;;;36.67;16.87;;;5.70;68.10;;;;;;2278210;56;21123;-67
2024/01/17 10:20:39;;;;;;;23.38;12.52;;;5.70;68.10;;;;;;2278208;54;20936;-68
2024/01/17 10:23:07;;;;;;;21.33;11.55;;;5.70;68.30;;;;;;2277522;56;21592;-67
2024/01/17 10:25:42;;;;;;;14.52;8.15;;;5.70;68.30;;;;;;2277071;56;20928;-67
2024/01/17 10:28:12;;;;;;;13.55;7.90;;;5.70;68.30;;;;;;2282918;55;21013;-67
2024/01/17 10:30:41;;;;;;;12.27;7.12;;;5.70;68.40;;;;;;2280072;54;21587;-67
2024/01/17 10:33:08;;;;;;;13.68;7.22;;;5.70;68.40;;;;;;2279093;55;20984;-67
2024/01/17 10:35:34;;;;;;;10.93;5.82;;;5.80;68.40;;;;;;2277137;55;20965;-67
2024/01/17 10:38:02;;;;;;;8.73;5.07;;;5.80;68.40;;;;;;2510774;54;21337;-66
2024/01/17 10:40:28;;;;;;;8.35;4.85;;;5.80;68.50;;;;;;2509925;54;21248;-66
2024/01/17 10:43:09;;;;;;;7.40;4.53;;;5.80;68.50;;;;;;2509567;54;21089;-67
2024/01/17 10:45:39;;;;;;;8.13;5.05;;;5.80;68.50;;;;;;2281339;54;21040;-68
2024/01/17 10:48:09;;;;;;;9.15;5.53;;;5.80;68.60;;;;;;2278144;54;21818;-69
2024/01/17 10:50:36;;;;;;;8.38;4.93;;;5.90;68.70;;;;;;2276893;55;21465;-66
2024/01/17 10:53:05;;;;;;;8.23;4.50;;;5.90;68.80;;;;;;2278476;56;20952;-66
2024/01/17 10:55:35;;;;;;;7.82;4.35;;;5.90;68.90;;;;;;2281334;56;20985;-67
2024/01/17 10:58:09;;;;;;;7.90;4.90;;;5.90;68.90;;;;;;2280564;53;20980;-67
2024/01/17 11:00:38;;;;;;;8.38;4.55;;;6.00;69.00;;;;;;2510142;54;21299;-67
2024/01/17 11:03:08;;;;;;;6.65;4.32;;;6.00;69.00;;;;;;2279098;55;21020;-67
2024/01/17 11:05:49;;;;;;;5.90;3.28;;;6.00;69.00;;;;;;2278062;56;20972;-67
2024/01/17 11:08:16;;;;;;;6.00;3.67;;;6.10;69.00;;;;;;2283090;55;21866;-67
2024/01/17 11:10:44;;;;;;;7.75;4.60;;;6.10;69.80;;;;;;2280264;55;21024;-67
2024/01/17 11:13:15;;;;;;;8.05;5.07;;;6.10;69.20;;;;;;2279152;54;21433;-67
2024/01/17 11:15:43;;;;;;;11.00;5.87;;;6.10;69.20;;;;;;2512398;53;21006;-66
2024/01/17 11:18:12;;;;;;;13.98;8.40;;;6.20;69.30;;;;;;2514011;53;21073;-67
2024/01/17 11:20:40;;;;;;;13.68;8.55;;;6.20;69.40;;;;;;2278373;56;21048;-67
2024/01/17 11:23:15;;;;;;;14.48;9.02;;;6.30;69.50;;;;;;2510695;54;21071;-66
2024/01/17 11:26:32;;;;;;;15.65;9.75;;;6.30;69.50;;;;;;2278078;54;20948;-67
2024/01/17 11:29:15;;;;;;;15.70;9.68;;;6.30;69.40;;;;;;2278359;56;22232;-67
2024/01/17 11:31:50;;;;;;;12.65;7.62;;;6.40;69.50;;;;;;2278272;56;21303;-67
2024/01/17 11:34:18;;;;;;;11.45;7.90;;;6.40;69.50;;;;;;2278851;56;20951;-67
2024/01/17 11:36:46;;;;;;;10.07;6.43;;;6.40;69.40;;;;;;2510860;54;20964;-66
2024/01/17 11:39:18;;;;;;;8.85;5.72;;;6.50;69.60;;;;;;2512032;54;20960;-67
2024/01/17 11:41:51;;;;;;;;;;;6.50;69.60;;;;;;2515161;54;20956;-66
2024/01/17 11:44:18;;;;;;;11.57;6.80;;;6.60;69.10;;;;;;2510980;54;20116;-66
2024/01/17 11:46:51;;;;;;;8.48;5.62;;;6.60;69.40;;;;;;2280136;54;21079;-68
2024/01/17 11:49:48;;;;;;;16.77;8.98;;;6.60;69.40;;;;;;2278677;54;21524;-68
2024/01/17 11:52:37;;;;;;;15.48;9.23;;;6.60;69.50;;;;;;2283692;54;21475;-68
2024/01/17 11:55:05;;;;;;;15.77;8.57;;;6.70;69.50;;;;;;2512782;54;21406;-67
2024/01/17 11:57:32;;;;;;;14.23;8.30;;;6.70;69.70;;;;;;2279159;56;21818;-67
2024/01/17 12:00:31;;;;;;;15.07;8.00;;;6.70;69.80;;;;;;2514580;54;21395;-67
2024/01/17 12:02:59;;;;;;;11.57;7.03;;;6.80;69.80;;;;;;2278682;56;21043;-67
2024/01/17 12:05:26;;;;;;;11.55;7.22;;;6.80;70.00;;;;;;2279738;54;21845;-66
2024/01/17 12:07:53;;;;;;;10.55;6.60;;;6.80;70.00;;;;;;2279571;54;20949;-66
2024/01/17 12:10:20;;;;;;;9.70;5.85;;;6.90;70.10;;;;;;2280838;54;20986;-67
2024/01/17 12:12:47;;;;;;;8.65;4.47;;;6.90;70.10;;;;;;2280779;54;21019;-66
2024/01/17 12:15:13;;;;;;;5.80;3.30;;;7.00;70.60;;;;;;2284583;54;20958;-67
2024/01/17 12:17:40;;;;;;;4.78;2.50;;;7.00;71.10;;;;;;2514411;54;20979;-66
2024/01/17 12:20:07;;;;;;;4.30;2.10;;;7.10;72.30;;;;;;2511715;54;20952;-66
2024/01/17 12:22:35;;;;;;;3.60;1.77;;;7.30;73.60;;;;;;2279019;56;21012;-66
2024/01/17 12:25:02;;;;;;;4.22;1.65;;;7.40;74.70;;;;;;2304432;55;21323;-66
2024/01/17 12:27:30;;;;;;;4.03;1.95;;;7.60;75.70;;;;;;2292088;55;21302;-68
2024/01/17 12:30:04;;;;;;;4.68;1.85;;;7.80;76.40;;;;;;2532270;53;20970;-68
2024/01/17 12:32:31;;;;;;;4.20;2.05;;;8.10;77.30;;;;;;2512271;54;20956;-68
2024/01/17 12:34:57;;;;;;;3.83;1.80;;;8.30;77.60;;;;;;2279034;54;21341;-68
2024/01/17 12:37:24;;;;;;;4.03;1.95;;;8.60;78.10;;;;;;2279859;56;21771;-69
2024/01/17 12:39:50;;;;;;;4.75;1.90;;;8.80;78.50;;;;;;2511353;54;20968;-68
2024/01/17 12:42:17;;;;;;;4.30;2.03;;;9.00;78.70;;;;;;2279303;54;21560;-67
2024/01/17 12:44:45;;;;;;;5.22;2.08;;;9.30;79.10;;;;;;2512242;54;21518;-68
2024/01/17 12:47:13;;;;;;;3.03;1.70;;;9.50;79.30;;;;;;2282032;55;21481;-67
2024/01/17 12:49:39;;;;;;;4.80;1.62;;;9.80;79.50;;;;;;2278666;54;21775;-69
2024/01/17 12:52:06;;;;;;;3.67;1.80;;;10.00;78.60;;;;;;2512152;54;21472;-66
2024/01/17 12:54:36;;;;;;;4.05;1.55;;;10.30;78.90;;;;;;2279552;54;20956;-66